Terminal Aerodrome Forecast
Issued by NWS Chicago, IL

Home | Current Version | Previous Version | Graphics & Text | Print | Product List | Glossary On
Versions: 1 2 3 4 5 6 7 8 9 10 11 12 13 14 15 16 17 18 19 20 21 22 23 24 25 26 27 28 29 30 31 32 33 34 35 36 37 38 39 40
000
FTUS43 KLOT 280900 AAA
TAFRFD
TAF AMD
KRFD 280900Z 2809/2906 07005KT P6SM SCT070 BKN250
     FM281400 11008KT P6SM SCT060 BKN120
     FM281800 12010KT P6SM VCSH BKN050 OVC080
      TEMPO 2821/2824 SHRA OVC050
     FM290300 13007KT P6SM VCSH OVC050=

USA.gov is the U.S. government's official web portal to all federal, state and local government web resources and services.